Time;durP1;ratioP1;P1;durP2;ratioP2;P2;SDS_P1;SDS_P2;PMS_P1;PMS_P2;Temp;Humidity;BMP_temperature;BMP_pressure;BME280_temperature;BME280_humidity;BME280_pressure;Samples;Min_cycle;Max_cycle;Signal;HPM_P1;HPM_P2
2021/08/10 00:01:14;;;;;;;2.75;1.65;;;16.50;71.60;;;;;;4991159;28;20050;-63
2021/08/10 00:03:40;;;;;;;3.88;1.60;;;16.50;71.70;;;;;;4983100;28;20100;-64
2021/08/10 00:06:06;;;;;;;1.88;1.70;;;16.50;71.60;;;;;;4978957;28;20045;-64
2021/08/10 00:08:31;;;;;;;1.70;1.60;;;16.50;71.80;;;;;;4979746;28;20674;-64
2021/08/10 00:10:57;;;;;;;2.20;1.27;;;16.40;71.70;;;;;;4976543;28;20454;-64
2021/08/10 00:13:24;;;;;;;1.35;1.20;;;16.40;71.40;;;;;;4973991;28;20502;-64
2021/08/10 00:15:49;;;;;;;3.42;1.35;;;16.40;71.60;;;;;;4989505;28;20889;-64
2021/08/10 00:18:15;;;;;;;2.00;1.20;;;16.40;71.70;;;;;;4990704;28;20030;-63
2021/08/10 00:20:41;;;;;;;1.27;1.17;;;16.40;71.40;;;;;;4979213;28;20108;-63
2021/08/10 00:23:07;;;;;;;1.58;1.13;;;16.40;71.40;;;;;;4974356;28;20037;-63
2021/08/10 00:25:33;;;;;;;1.80;1.30;;;16.40;71.60;;;;;;4979786;28;20065;-64
2021/08/10 00:28:00;;;;;;;1.92;1.30;;;16.40;71.80;;;;;;4988313;28;20026;-64
2021/08/10 00:30:27;;;;;;;1.30;1.20;;;16.40;71.90;;;;;;4980154;28;20039;-64
2021/08/10 00:32:52;;;;;;;1.67;1.58;;;16.40;72.00;;;;;;4979228;28;20035;-63
2021/08/10 00:35:18;;;;;;;1.35;1.25;;;16.40;72.00;;;;;;4985529;28;20100;-64
2021/08/10 00:37:44;;;;;;;1.70;1.50;;;16.30;72.10;;;;;;4975583;28;20035;-64
2021/08/10 00:40:11;;;;;;;1.67;1.27;;;16.30;72.20;;;;;;4974518;28;20045;-63
2021/08/10 00:42:37;;;;;;;1.50;1.40;;;16.30;72.20;;;;;;4979529;28;20034;-63
2021/08/10 00:45:04;;;;;;;1.95;1.50;;;16.20;72.10;;;;;;4981584;28;20062;-64
2021/08/10 00:47:30;;;;;;;1.67;1.50;;;16.20;72.40;;;;;;4978347;28;20042;-64
2021/08/10 00:49:56;;;;;;;1.40;1.30;;;16.20;72.50;;;;;;4982654;28;20034;-64
2021/08/10 00:52:21;;;;;;;2.63;1.50;;;16.20;72.40;;;;;;4984707;28;20033;-64
2021/08/10 00:54:47;;;;;;;1.95;1.50;;;16.10;72.10;;;;;;4972378;28;20085;-63
2021/08/10 00:57:13;;;;;;;1.30;1.20;;;16.20;72.30;;;;;;4980485;28;20126;-63
2021/08/10 00:59:39;;;;;;;2.03;1.67;;;16.10;72.30;;;;;;4987338;28;20121;-63
2021/08/10 01:02:05;;;;;;;1.55;1.35;;;16.10;72.40;;;;;;4973634;28;20109;-63
2021/08/10 01:04:31;;;;;;;1.42;1.33;;;16.10;72.60;;;;;;4979687;28;20126;-64
2021/08/10 01:06:56;;;;;;;1.85;1.60;;;16.10;72.50;;;;;;4977627;28;20125;-64
2021/08/10 01:09:31;;;;;;;3.85;1.67;;;16.00;72.50;;;;;;4976020;28;20034;-63
2021/08/10 01:12:07;;;;;;;1.52;1.33;;;16.00;73.00;;;;;;4970186;28;20048;-63
2021/08/10 01:14:59;;;;;;;1.77;1.67;;;16.00;72.60;;;;;;4973346;28;20121;-64
2021/08/10 01:17:32;;;;;;;1.65;1.55;;;15.90;72.60;;;;;;4989626;28;20046;-64
2021/08/10 01:20:17;;;;;;;1.45;1.35;;;15.90;72.60;;;;;;4973696;28;20042;-63
2021/08/10 01:22:48;;;;;;;1.85;1.50;;;15.90;73.00;;;;;;4984299;28;20035;-64
2021/08/10 01:25:25;;;;;;;1.58;1.45;;;15.80;72.90;;;;;;4983429;28;20117;-63
2021/08/10 01:28:08;;;;;;;1.60;1.50;;;15.80;73.30;;;;;;4972247;28;20018;-64
2021/08/10 01:31:05;;;;;;;1.65;1.55;;;15.70;72.90;;;;;;4978704;28;20051;-63
2021/08/10 01:33:36;;;;;;;1.50;1.40;;;15.70;74.10;;;;;;4976211;28;20034;-63
2021/08/10 01:36:03;;;;;;;2.78;1.25;;;15.60;73.20;;;;;;4990658;28;20117;-63
2021/08/10 01:38:31;;;;;;;2.88;1.30;;;15.60;73.20;;;;;;4976655;28;20049;-63
2021/08/10 01:40:59;;;;;;;3.75;1.30;;;15.60;73.20;;;;;;4992911;28;20050;-63
2021/08/10 01:43:26;;;;;;;2.50;1.13;;;15.60;73.60;;;;;;4973383;28;20497;-64
2021/08/10 01:45:52;;;;;;;1.65;1.55;;;15.60;73.40;;;;;;4973220;28;20517;-63
2021/08/10 01:48:20;;;;;;;3.25;1.30;;;15.60;73.40;;;;;;4981585;28;20034;-64
2021/08/10 01:50:46;;;;;;;1.27;1.02;;;15.60;73.40;;;;;;4979326;28;20026;-63
2021/08/10 01:53:14;;;;;;;4.03;1.30;;;15.60;73.20;;;;;;4974969;28;20117;-63
2021/08/10 01:55:39;;;;;;;1.63;1.33;;;15.50;73.30;;;;;;4982032;28;20022;-63
2021/08/10 01:58:06;;;;;;;1.58;1.33;;;15.50;73.30;;;;;;4979499;28;20113;-64
2021/08/10 02:00:33;;;;;;;1.33;1.13;;;15.50;73.40;;;;;;4975996;28;20048;-64
2021/08/10 02:03:04;;;;;;;1.63;1.27;;;15.50;73.30;;;;;;4982646;28;20070;-63
2021/08/10 02:05:30;;;;;;;1.77;1.20;;;15.50;73.30;;;;;;4996497;28;20046;-63
2021/08/10 02:07:56;;;;;;;1.40;1.30;;;15.50;73.00;;;;;;4984070;28;20026;-63
2021/08/10 02:10:22;;;;;;;2.10;1.40;;;15.50;73.00;;;;;;4981371;28;20035;-63
2021/08/10 02:12:48;;;;;;;2.35;1.20;;;15.50;73.20;;;;;;4979508;28;20502;-63
2021/08/10 02:15:14;;;;;;;1.55;1.30;;;15.50;73.00;;;;;;4978536;28;20170;-64
2021/08/10 02:17:40;;;;;;;1.70;1.55;;;15.50;73.00;;;;;;4996912;28;20030;-63
2021/08/10 02:20:06;;;;;;;1.67;1.30;;;15.40;72.90;;;;;;4983237;28;20041;-63
2021/08/10 02:22:32;;;;;;;1.70;1.33;;;15.50;72.90;;;;;;4972667;28;20045;-63
2021/08/10 02:25:08;;;;;;;1.65;1.30;;;15.40;72.90;;;;;;4981706;28;20030;-63
2021/08/10 02:27:45;;;;;;;1.85;1.50;;;15.40;73.30;;;;;;4980541;28;20057;-64
2021/08/10 02:30:16;;;;;;;1.92;1.40;;;15.40;73.50;;;;;;4979848;28;20129;-64
2021/08/10 02:32:44;;;;;;;1.60;1.38;;;15.30;73.10;;;;;;4977485;28;20038;-63
2021/08/10 02:35:12;;;;;;;3.35;1.40;;;15.30;73.20;;;;;;4979335;28;20026;-63
2021/08/10 02:37:40;;;;;;;1.60;1.45;;;15.30;73.20;;;;;;4975180;28;20064;-63
2021/08/10 02:40:09;;;;;;;1.50;1.40;;;15.20;73.30;;;;;;4978551;28;20022;-63
2021/08/10 02:42:36;;;;;;;2.83;1.48;;;15.20;73.70;;;;;;4978072;28;20073;-63
2021/08/10 02:45:02;;;;;;;1.90;1.60;;;15.20;73.70;;;;;;4975703;28;20022;-64
2021/08/10 02:47:28;;;;;;;2.17;1.60;;;15.10;73.70;;;;;;4942182;28;1107413;-64
2021/08/10 02:49:54;;;;;;;1.60;1.40;;;15.10;73.90;;;;;;4986323;28;20026;-63
2021/08/10 02:52:20;;;;;;;1.63;1.48;;;15.00;73.90;;;;;;4989836;28;20109;-63
2021/08/10 02:54:46;;;;;;;1.52;1.40;;;15.00;74.00;;;;;;4981229;28;20030;-63
2021/08/10 02:57:26;;;;;;;2.08;1.40;;;15.00;74.20;;;;;;4986838;28;20026;-63
2021/08/10 03:00:00;;;;;;;1.73;1.17;;;15.00;74.60;;;;;;4984061;28;20109;-63
2021/08/10 03:02:35;;;;;;;2.28;1.20;;;15.00;74.70;;;;;;4986445;28;20037;-63
2021/08/10 03:05:09;;;;;;;1.42;1.23;;;15.00;74.70;;;;;;4974979;28;20106;-63
2021/08/10 03:07:37;;;;;;;1.73;1.60;;;15.00;74.80;;;;;;4981456;28;20037;-63
2021/08/10 03:10:06;;;;;;;1.30;1.20;;;15.00;74.40;;;;;;4980642;28;20023;-64
2021/08/10 03:12:40;;;;;;;3.67;1.42;;;15.00;74.60;;;;;;4992303;28;20035;-63
2021/08/10 03:15:06;;;;;;;2.28;1.42;;;14.90;74.70;;;;;;4981711;28;20085;-63
2021/08/10 03:17:36;;;;;;;2.38;1.20;;;14.90;74.70;;;;;;4984663;28;20049;-63
2021/08/10 03:20:04;;;;;;;2.38;1.50;;;14.80;74.90;;;;;;4996989;28;20030;-63
2021/08/10 03:22:32;;;;;;;1.60;1.30;;;14.90;75.20;;;;;;4974692;28;20062;-64
2021/08/10 03:24:59;;;;;;;3.08;1.42;;;14.90;75.60;;;;;;4979051;28;20023;-63
2021/08/10 03:27:26;;;;;;;3.47;1.70;;;14.90;75.10;;;;;;4988800;28;20577;-63
2021/08/10 03:29:53;;;;;;;1.60;1.50;;;14.90;75.10;;;;;;4980247;28;20417;-64
2021/08/10 03:32:19;;;;;;;1.83;1.55;;;14.90;75.10;;;;;;4975207;28;20034;-63
2021/08/10 03:34:46;;;;;;;1.42;1.33;;;14.80;75.10;;;;;;4980403;28;20035;-63
2021/08/10 03:37:13;;;;;;;1.48;1.25;;;14.80;75.10;;;;;;4978705;28;20489;-63
2021/08/10 03:39:40;;;;;;;1.88;1.30;;;14.80;75.10;;;;;;4995139;28;20077;-63
2021/08/10 03:42:07;;;;;;;2.75;1.52;;;14.90;75.10;;;;;;4982092;28;20485;-63
2021/08/10 03:44:34;;;;;;;1.92;1.50;;;14.80;75.10;;;;;;4982266;28;20517;-64
2021/08/10 03:47:00;;;;;;;1.63;1.52;;;14.80;75.30;;;;;;4978954;28;20125;-63
2021/08/10 03:49:26;;;;;;;1.73;1.55;;;14.80;75.40;;;;;;4985451;28;20133;-63
2021/08/10 03:51:52;;;;;;;1.63;1.52;;;14.80;75.40;;;;;;4981534;28;20045;-64
2021/08/10 03:54:18;;;;;;;4.00;1.33;;;14.80;75.50;;;;;;4972402;28;20038;-64
2021/08/10 03:56:46;;;;;;;2.05;1.45;;;14.80;75.40;;;;;;4982721;28;20516;-64
2021/08/10 03:59:15;;;;;;;1.60;1.30;;;14.80;76.40;;;;;;4983324;28;20129;-63
2021/08/10 04:01:42;;;;;;;2.25;1.15;;;14.80;75.50;;;;;;4989821;28;20658;-63
2021/08/10 04:04:09;;;;;;;1.60;1.33;;;14.80;75.40;;;;;;4974898;28;20050;-63
2021/08/10 04:06:37;;;;;;;1.35;1.20;;;14.90;75.50;;;;;;4981633;28;20041;-63
2021/08/10 04:09:05;;;;;;;2.50;1.30;;;14.90;75.50;;;;;;4983365;28;20026;-63
2021/08/10 04:11:31;;;;;;;2.60;1.30;;;14.90;75.40;;;;;;4972266;28;20517;-63
2021/08/10 04:13:56;;;;;;;1.42;1.30;;;14.90;75.50;;;;;;4981445;28;20031;-63
2021/08/10 04:16:24;;;;;;;1.90;1.50;;;14.90;75.50;;;;;;4983981;28;20030;-63
2021/08/10 04:18:53;;;;;;;1.48;1.30;;;14.90;75.60;;;;;;4978113;28;20513;-63
2021/08/10 04:21:24;;;;;;;1.75;1.48;;;15.00;75.70;;;;;;4984841;28;20045;-63
2021/08/10 04:23:49;;;;;;;2.20;1.52;;;15.00;76.70;;;;;;5001557;28;20109;-63
2021/08/10 04:26:15;;;;;;;1.60;1.50;;;15.10;76.00;;;;;;4978417;28;20478;-63
2021/08/10 04:28:40;;;;;;;2.95;1.60;;;15.10;76.00;;;;;;4975769;28;20097;-63
2021/08/10 04:31:06;;;;;;;1.58;1.20;;;15.10;76.10;;;;;;4982763;28;20060;-63
2021/08/10 04:33:32;;;;;;;3.50;1.70;;;15.20;76.10;;;;;;4977462;28;20049;-63
2021/08/10 04:35:57;;;;;;;2.72;1.50;;;15.20;76.20;;;;;;4984832;28;20165;-64
2021/08/10 04:38:23;;;;;;;1.55;1.45;;;15.20;76.20;;;;;;4980013;28;20386;-62
2021/08/10 04:40:49;;;;;;;1.48;1.38;;;15.20;76.30;;;;;;4978316;28;20043;-63
2021/08/10 04:43:14;;;;;;;2.53;1.63;;;15.20;76.40;;;;;;4978444;28;20026;-63
2021/08/10 04:45:40;;;;;;;1.77;1.65;;;15.20;76.50;;;;;;4981216;28;20033;-65
2021/08/10 04:48:07;;;;;;;2.17;1.67;;;15.30;76.60;;;;;;4986720;28;20042;-63
2021/08/10 04:50:33;;;;;;;1.52;1.42;;;15.30;76.60;;;;;;4979927;28;20074;-63
2021/08/10 04:52:59;;;;;;;2.10;1.58;;;15.30;76.60;;;;;;4980542;28;20054;-63
2021/08/10 04:55:25;;;;;;;2.25;1.92;;;15.30;77.40;;;;;;4984306;28;20113;-64
2021/08/10 04:57:50;;;;;;;2.22;1.88;;;15.40;77.50;;;;;;4981047;28;20034;-63
2021/08/10 05:00:16;;;;;;;2.80;2.08;;;15.40;76.60;;;;;;4974784;28;20050;-63
2021/08/10 05:02:42;;;;;;;1.80;1.52;;;15.40;76.50;;;;;;4974814;28;20046;-64
2021/08/10 05:05:08;;;;;;;1.88;1.70;;;15.40;76.30;;;;;;4977337;28;20058;-63
2021/08/10 05:07:35;;;;;;;1.77;1.67;;;15.40;76.30;;;;;;4977877;28;20052;-63
2021/08/10 05:10:02;;;;;;;1.80;1.70;;;15.50;76.50;;;;;;4995273;28;20089;-63
2021/08/10 05:12:27;;;;;;;1.98;1.65;;;15.50;76.40;;;;;;4970399;28;20046;-63
2021/08/10 05:14:53;;;;;;;1.90;1.80;;;15.50;76.30;;;;;;4974341;28;20034;-63
2021/08/10 05:17:19;;;;;;;2.80;1.67;;;15.50;76.30;;;;;;4972717;28;20023;-63
2021/08/10 05:19:44;;;;;;;2.00;1.60;;;15.50;76.20;;;;;;4970460;28;20433;-63
2021/08/10 05:22:10;;;;;;;2.05;1.55;;;15.60;76.60;;;;;;4973899;28;20035;-63
2021/08/10 05:24:36;;;;;;;4.10;2.00;;;15.60;76.30;;;;;;4978475;28;20035;-63
2021/08/10 05:27:01;;;;;;;2.03;1.88;;;15.60;76.30;;;;;;4972309;28;20046;-63
2021/08/10 05:29:27;;;;;;;2.65;2.03;;;15.70;76.50;;;;;;4971372;28;20065;-64
2021/08/10 05:31:53;;;;;;;3.15;1.92;;;15.70;76.50;;;;;;4972567;28;20081;-63
2021/08/10 05:34:19;;;;;;;3.70;2.10;;;15.70;76.50;;;;;;4992648;28;20046;-63
2021/08/10 05:36:44;;;;;;;4.05;1.80;;;15.80;76.50;;;;;;4979747;28;20505;-63
2021/08/10 05:39:10;;;;;;;2.35;1.88;;;15.80;76.50;;;;;;4992506;28;20748;-63
2021/08/10 05:41:35;;;;;;;5.30;2.53;;;15.90;76.50;;;;;;4985769;28;20058;-63
2021/08/10 05:44:01;;;;;;;3.72;2.33;;;15.90;76.50;;;;;;4983176;28;20026;-63
2021/08/10 05:46:27;;;;;;;3.25;1.85;;;16.00;76.60;;;;;;4967053;28;20039;-63
2021/08/10 05:48:52;;;;;;;4.30;2.03;;;16.00;76.50;;;;;;4972321;28;20081;-63
2021/08/10 05:51:18;;;;;;;3.15;2.00;;;16.10;76.50;;;;;;4973122;28;20041;-63
2021/08/10 05:53:44;;;;;;;3.22;2.28;;;16.10;76.30;;;;;;4976982;28;20037;-63
2021/08/10 05:56:09;;;;;;;3.35;2.10;;;16.20;76.30;;;;;;4972092;28;20045;-64
2021/08/10 05:58:35;;;;;;;4.47;2.17;;;16.30;76.40;;;;;;4985514;28;20077;-64
2021/08/10 06:01:03;;;;;;;4.80;1.98;;;16.30;76.30;;;;;;4986483;28;20037;-64
2021/08/10 06:03:28;;;;;;;24.83;2.58;;;16.40;76.30;;;;;;4969417;28;20039;-63
2021/08/10 06:05:54;;;;;;;14.40;2.55;;;16.50;76.40;;;;;;4948865;28;20038;-63
2021/08/10 06:08:19;;;;;;;10.70;2.13;;;16.50;76.40;;;;;;4944395;28;20687;-64
2021/08/10 06:10:45;;;;;;;15.10;2.75;;;16.60;76.50;;;;;;4957886;28;20027;-64
2021/08/10 06:13:11;;;;;;;16.13;3.13;;;16.60;76.70;;;;;;4954733;28;20109;-64
2021/08/10 06:15:38;;;;;;;18.33;3.33;;;16.70;77.30;;;;;;4972036;28;20130;-64
2021/08/10 06:18:05;;;;;;;17.02;3.10;;;16.70;76.40;;;;;;4958103;28;20046;-64
2021/08/10 06:20:30;;;;;;;19.98;3.28;;;16.80;76.60;;;;;;4950634;28;20046;-64
2021/08/10 06:22:56;;;;;;;18.08;3.40;;;16.90;76.60;;;;;;4954610;28;20038;-64
2021/08/10 06:25:21;;;;;;;10.73;3.10;;;16.90;76.60;;;;;;4977321;28;20081;-64
2021/08/10 06:27:47;;;;;;;19.58;2.85;;;17.00;76.60;;;;;;4967391;28;20498;-64
2021/08/10 06:30:14;;;;;;;13.95;3.10;;;17.10;76.60;;;;;;4950575;28;20043;-64
2021/08/10 06:32:40;;;;;;;15.50;3.53;;;17.10;76.60;;;;;;4966052;28;20075;-64
2021/08/10 06:35:06;;;;;;;9.75;3.00;;;17.20;76.60;;;;;;4952448;28;21815;-64
2021/08/10 06:37:31;;;;;;;8.02;2.70;;;17.30;76.50;;;;;;4951603;28;20062;-63
2021/08/10 06:39:57;;;;;;;11.75;2.67;;;17.30;76.50;;;;;;4969952;28;20719;-63
2021/08/10 06:42:23;;;;;;;10.20;2.67;;;17.40;76.60;;;;;;4963142;28;20113;-63
2021/08/10 06:44:48;;;;;;;14.25;2.53;;;17.50;76.50;;;;;;4967067;28;20035;-64
2021/08/10 06:47:15;;;;;;;10.60;3.17;;;17.50;76.50;;;;;;4954375;28;20494;-64
2021/08/10 06:49:41;;;;;;;8.85;3.10;;;17.60;76.50;;;;;;4955328;28;20035;-64
2021/08/10 06:52:08;;;;;;;3.92;2.75;;;17.60;76.60;;;;;;4965222;28;20030;-64
2021/08/10 06:54:34;;;;;;;6.85;2.50;;;17.70;76.70;;;;;;4978654;28;20088;-64
2021/08/10 06:57:07;;;;;;;3.50;2.55;;;17.80;76.90;;;;;;4990114;28;20057;-64
2021/08/10 06:59:34;;;;;;;8.68;2.70;;;17.90;77.00;;;;;;4997643;28;20454;-64
2021/08/10 07:02:00;;;;;;;3.30;2.58;;;17.90;76.60;;;;;;4985700;28;20082;-65
2021/08/10 07:04:25;;;;;;;2.88;2.47;;;18.00;76.70;;;;;;4973319;28;20468;-64
2021/08/10 07:06:51;;;;;;;4.40;2.33;;;18.10;76.70;;;;;;4991199;28;20049;-64
2021/08/10 07:09:17;;;;;;;4.22;2.75;;;18.20;76.70;;;;;;4998814;28;20426;-64
2021/08/10 07:11:43;;;;;;;3.55;2.53;;;18.20;76.70;;;;;;4992840;28;20053;-64
2021/08/10 07:14:12;;;;;;;2.75;2.50;;;18.30;76.90;;;;;;4998011;28;20453;-64
2021/08/10 07:16:39;;;;;;;3.05;2.78;;;18.30;77.30;;;;;;4979410;28;20568;-64
2021/08/10 07:19:05;;;;;;;3.03;2.72;;;18.40;77.00;;;;;;4982085;28;20035;-64
2021/08/10 07:21:30;;;;;;;2.45;2.25;;;18.50;77.00;;;;;;4996504;28;20050;-65
2021/08/10 07:23:56;;;;;;;3.50;2.40;;;18.50;76.90;;;;;;4995692;28;20100;-65
2021/08/10 07:26:22;;;;;;;2.92;2.50;;;18.50;76.70;;;;;;4973925;28;20114;-64
2021/08/10 07:28:47;;;;;;;2.85;2.53;;;18.70;76.80;;;;;;4977593;28;20038;-64
2021/08/10 07:31:13;;;;;;;5.43;2.38;;;18.70;76.70;;;;;;4990016;28;20414;-64
2021/08/10 07:33:39;;;;;;;3.78;2.63;;;18.80;76.40;;;;;;5000368;28;20068;-63
2021/08/10 07:36:04;;;;;;;5.05;2.67;;;18.90;76.50;;;;;;4997698;28;20058;-64
2021/08/10 07:38:30;;;;;;;4.28;2.35;;;18.90;76.30;;;;;;4995927;28;20045;-63
2021/08/10 07:40:56;;;;;;;3.65;2.22;;;19.00;76.30;;;;;;4980265;28;20033;-64
2021/08/10 07:43:22;;;;;;;3.92;2.20;;;19.00;76.10;;;;;;4986525;28;20034;-64
2021/08/10 07:45:48;;;;;;;3.88;2.63;;;19.10;76.10;;;;;;4993435;28;20121;-64
2021/08/10 07:48:15;;;;;;;3.72;2.70;;;19.20;76.20;;;;;;4997762;28;20042;-64
2021/08/10 07:50:40;;;;;;;3.03;2.60;;;19.20;76.50;;;;;;4995282;28;20113;-64
2021/08/10 07:53:06;;;;;;;2.67;2.42;;;19.30;76.30;;;;;;4984342;28;20692;-64
2021/08/10 07:55:32;;;;;;;2.95;2.40;;;19.40;76.00;;;;;;4998205;28;20041;-64
2021/08/10 07:57:57;;;;;;;3.15;2.38;;;19.40;75.60;;;;;;5000044;28;20038;-65
2021/08/10 08:00:23;;;;;;;7.50;2.90;;;19.40;75.60;;;;;;4999903;28;20065;-64
2021/08/10 08:02:49;;;;;;;3.35;2.58;;;19.50;75.70;;;;;;4999848;28;20421;-64
2021/08/10 08:05:14;;;;;;;2.85;2.58;;;19.50;75.70;;;;;;5001491;28;20030;-65
2021/08/10 08:07:40;;;;;;;7.85;2.78;;;19.60;75.80;;;;;;4999371;28;20061;-64
2021/08/10 08:10:06;;;;;;;3.10;2.60;;;19.70;76.00;;;;;;5000324;28;20030;-64
2021/08/10 08:12:32;;;;;;;6.03;3.15;;;19.80;76.00;;;;;;4993822;28;20046;-64
2021/08/10 08:14:58;;;;;;;4.35;2.65;;;19.80;75.60;;;;;;4996516;28;20327;-64
2021/08/10 08:17:23;;;;;;;4.75;2.47;;;19.90;75.40;;;;;;5001973;28;20057;-64
2021/08/10 08:19:49;;;;;;;2.60;2.40;;;20.00;75.10;;;;;;5000054;28;20061;-64
2021/08/10 08:22:14;;;;;;;2.58;2.38;;;20.10;75.10;;;;;;5000812;28;20041;-64
2021/08/10 08:24:41;;;;;;;3.00;2.20;;;20.20;74.90;;;;;;4983637;28;20039;-64
2021/08/10 08:27:07;;;;;;;2.72;2.05;;;20.40;74.80;;;;;;4965057;28;20196;-64
2021/08/10 08:29:32;;;;;;;2.45;2.05;;;20.40;74.70;;;;;;4968779;28;21089;-64
2021/08/10 08:31:58;;;;;;;3.30;2.28;;;20.60;74.50;;;;;;4964023;28;20037;-64
2021/08/10 08:34:24;;;;;;;3.17;2.30;;;20.60;74.40;;;;;;4976488;28;20031;-64
2021/08/10 08:36:49;;;;;;;2.80;2.10;;;20.80;74.20;;;;;;4965457;28;20042;-64
2021/08/10 08:39:15;;;;;;;4.05;2.13;;;20.90;73.90;;;;;;4981440;28;20038;-65
2021/08/10 08:41:44;;;;;;;4.25;2.15;;;21.00;73.90;;;;;;4963890;28;20042;-64
2021/08/10 08:44:09;;;;;;;3.83;2.10;;;21.10;73.90;;;;;;4962987;28;20030;-64
2021/08/10 08:46:37;;;;;;;3.63;2.33;;;21.20;73.70;;;;;;4960834;28;20050;-64
2021/08/10 08:49:05;;;;;;;4.47;2.20;;;21.30;73.50;;;;;;4962878;28;20755;-64
2021/08/10 08:51:32;;;;;;;2.50;2.00;;;21.50;73.30;;;;;;4977635;28;20038;-63
2021/08/10 08:54:01;;;;;;;3.17;2.10;;;21.60;73.00;;;;;;4966382;28;20038;-64
2021/08/10 08:56:27;;;;;;;2.92;1.80;;;21.80;72.80;;;;;;4963262;28;20042;-64
2021/08/10 08:58:55;;;;;;;1.75;1.65;;;21.90;72.60;;;;;;4980865;28;20038;-64
2021/08/10 09:01:21;;;;;;;3.08;1.70;;;22.00;72.30;;;;;;4962672;28;20041;-64
2021/08/10 09:03:46;;;;;;;3.08;1.85;;;22.10;72.00;;;;;;4979556;28;20624;-64
2021/08/10 09:06:12;;;;;;;2.28;1.85;;;22.20;71.50;;;;;;4980742;28;20046;-64
2021/08/10 09:08:41;;;;;;;2.33;1.80;;;22.40;71.30;;;;;;4964923;28;20046;-64
2021/08/10 09:11:09;;;;;;;2.88;2.08;;;22.50;70.70;;;;;;4977661;28;20066;-64
2021/08/10 09:13:41;;;;;;;2.40;1.85;;;22.70;70.40;;;;;;4976021;28;20038;-64
2021/08/10 09:16:08;;;;;;;3.03;1.70;;;22.80;70.20;;;;;;4977195;28;20834;-64
2021/08/10 09:18:38;;;;;;;3.97;2.15;;;22.90;69.80;;;;;;4963776;28;20197;-64
2021/08/10 09:21:13;;;;;;;2.20;1.65;;;23.10;69.50;;;;;;4968638;28;20609;-64
2021/08/10 09:23:49;;;;;;;6.28;1.75;;;23.20;69.50;;;;;;4969414;28;20037;-64
2021/08/10 09:26:16;;;;;;;2.97;1.80;;;23.40;69.10;;;;;;4975779;28;20655;-64
2021/08/10 09:28:43;;;;;;;3.15;1.63;;;23.50;68.30;;;;;;4976061;28;20042;-63
2021/08/10 09:31:28;;;;;;;2.42;1.33;;;23.70;66.50;;;;;;4978884;28;20034;-65
2021/08/10 09:34:08;;;;;;;1.48;1.30;;;23.90;63.30;;;;;;4976833;28;20035;-64
2021/08/10 09:36:35;;;;;;;2.70;1.70;;;24.10;65.10;;;;;;4961119;28;20328;-64
2021/08/10 09:39:03;;;;;;;2.58;1.52;;;24.20;65.70;;;;;;4980660;28;20041;-64
2021/08/10 09:41:30;;;;;;;1.80;1.50;;;24.40;65.20;;;;;;4993696;28;20038;-65
2021/08/10 09:44:18;;;;;;;2.03;1.83;;;24.50;64.70;;;;;;4977310;28;20042;-64
2021/08/10 09:46:49;;;;;;;1.80;1.70;;;24.60;63.00;;;;;;4961224;28;20053;-65
2021/08/10 09:49:17;;;;;;;3.03;1.60;;;24.70;64.20;;;;;;4972963;28;20076;-66
2021/08/10 09:51:47;;;;;;;2.63;1.42;;;24.80;63.30;;;;;;4961252;28;20066;-65
2021/08/10 09:54:14;;;;;;;1.70;1.45;;;25.00;63.40;;;;;;4963365;28;20520;-65
2021/08/10 09:56:43;;;;;;;1.80;1.40;;;25.00;62.30;;;;;;4964342;28;20027;-65
2021/08/10 09:59:09;;;;;;;3.53;1.40;;;25.10;59.80;;;;;;4975773;28;20031;-65
2021/08/10 10:01:40;;;;;;;1.70;1.40;;;25.20;57.90;;;;;;4980907;28;20046;-64
2021/08/10 10:04:16;;;;;;;2.25;1.60;;;25.20;56.50;;;;;;4993630;28;20490;-64
2021/08/10 10:06:44;;;;;;;3.22;1.60;;;25.20;56.00;;;;;;4973684;28;20051;-66
2021/08/10 10:09:11;;;;;;;4.10;1.52;;;25.20;56.30;;;;;;4962868;28;20039;-65
2021/08/10 10:11:38;;;;;;;1.83;1.50;;;25.30;56.90;;;;;;4971991;28;20713;-65
2021/08/10 10:14:05;;;;;;;2.78;1.33;;;25.30;57.40;;;;;;4983424;28;20394;-64
2021/08/10 10:16:32;;;;;;;1.45;1.35;;;25.40;57.20;;;;;;4979918;28;20026;-64
2021/08/10 10:19:10;;;;;;;3.10;1.50;;;25.40;57.00;;;;;;5005442;28;20138;-64
2021/08/10 10:21:37;;;;;;;2.95;1.50;;;25.40;55.90;;;;;;4977838;28;20046;-64
2021/08/10 10:24:04;;;;;;;2.67;1.48;;;25.40;57.20;;;;;;4991371;28;20088;-64
2021/08/10 10:26:36;;;;;;;1.67;1.58;;;25.40;56.90;;;;;;4998507;28;20081;-64
2021/08/10 10:29:03;;;;;;;2.97;1.70;;;25.50;56.10;;;;;;4980069;28;20498;-64
2021/08/10 10:31:31;;;;;;;2.58;1.30;;;25.50;56.30;;;;;;5005514;28;20038;-64
2021/08/10 10:33:58;;;;;;;1.77;1.60;;;25.50;56.30;;;;;;4981300;28;20023;-65
2021/08/10 10:36:23;;;;;;;1.92;1.45;;;25.50;56.20;;;;;;4974676;28;20070;-64
2021/08/10 10:38:52;;;;;;;2.55;1.58;;;25.50;56.20;;;;;;4998896;28;20513;-64
2021/08/10 10:41:19;;;;;;;2.40;1.60;;;25.50;56.10;;;;;;5000654;28;20035;-65
2021/08/10 10:43:45;;;;;;;1.98;1.73;;;25.50;56.00;;;;;;4979585;28;20540;-64
2021/08/10 10:46:37;;;;;;;1.90;1.70;;;25.50;55.80;;;;;;4990604;28;20030;-64
2021/08/10 10:49:05;;;;;;;2.55;1.60;;;25.50;55.70;;;;;;4980205;28;20035;-64
2021/08/10 10:51:38;;;;;;;2.22;1.50;;;25.50;56.20;;;;;;4978481;28;20098;-64
2021/08/10 10:54:31;;;;;;;5.43;1.60;;;25.60;56.00;;;;;;5001344;28;20565;-64
2021/08/10 10:57:00;;;;;;;3.33;1.73;;;25.60;56.30;;;;;;4994752;28;20061;-65
2021/08/10 10:59:31;;;;;;;1.80;1.40;;;25.70;55.70;;;;;;4996528;28;20338;-64
2021/08/10 11:02:25;;;;;;;2.25;1.42;;;25.80;55.80;;;;;;4995622;28;20114;-64
2021/08/10 11:05:06;;;;;;;2.25;1.48;;;25.80;55.80;;;;;;5004665;28;20023;-65
2021/08/10 11:07:44;;;;;;;2.75;1.45;;;25.90;55.50;;;;;;4997473;28;20058;-65
2021/08/10 11:10:11;;;;;;;4.68;1.75;;;26.00;55.60;;;;;;4993461;28;20110;-64
2021/08/10 11:12:47;;;;;;;2.30;1.67;;;26.00;55.40;;;;;;4980381;28;20074;-64
2021/08/10 11:15:17;;;;;;;2.75;1.48;;;26.10;54.70;;;;;;4983939;28;20071;-65
2021/08/10 11:18:08;;;;;;;1.50;1.20;;;26.10;55.20;;;;;;5004319;28;20410;-64
2021/08/10 11:20:35;;;;;;;2.38;1.40;;;26.30;53.60;;;;;;4990198;28;20046;-64
2021/08/10 11:23:25;;;;;;;2.25;1.85;;;26.30;55.20;;;;;;5002490;28;20129;-64
2021/08/10 11:26:12;;;;;;;1.77;1.63;;;26.40;53.10;;;;;;5001670;28;20038;-64
2021/08/10 11:28:44;;;;;;;2.10;1.40;;;26.50;53.20;;;;;;4979868;28;20080;-64
2021/08/10 11:31:11;;;;;;;3.63;1.80;;;26.50;53.70;;;;;;5001261;28;20033;-65
2021/08/10 11:33:39;;;;;;;2.28;1.55;;;26.50;54.00;;;;;;4986163;28;20041;-64
2021/08/10 11:36:11;;;;;;;3.70;1.75;;;26.60;54.50;;;;;;4996106;28;20041;-65
2021/08/10 11:38:47;;;;;;;2.45;1.50;;;26.70;53.50;;;;;;4999935;28;20042;-64
2021/08/10 11:41:19;;;;;;;1.35;1.20;;;26.70;53.70;;;;;;4978686;28;20034;-64
2021/08/10 11:43:46;;;;;;;2.92;1.52;;;26.70;54.10;;;;;;4994374;28;20050;-64
2021/08/10 11:46:22;;;;;;;1.67;1.40;;;26.80;54.00;;;;;;4999874;28;20039;-65
2021/08/10 11:48:55;;;;;;;2.13;1.50;;;26.80;53.00;;;;;;4983976;28;20576;-64
2021/08/10 11:51:34;;;;;;;2.33;1.60;;;26.80;53.50;;;;;;4988741;28;20030;-64
2021/08/10 11:54:08;;;;;;;3.88;1.58;;;26.90;52.60;;;;;;4983839;28;20031;-64
2021/08/10 11:56:35;;;;;;;;;;;26.90;53.20;;;;;;4994656;28;20043;-64
2021/08/10 11:59:04;;;;;;;8.75;1.52;;;27.00;52.50;;;;;;4980843;28;19957;-64
2021/08/10 12:01:33;;;;;;;4.97;1.90;;;27.10;52.40;;;;;;4982691;28;20047;-64
2021/08/10 12:04:18;;;;;;;1.55;1.45;;;27.10;52.00;;;;;;4972380;28;20113;-64
2021/08/10 12:06:49;;;;;;;1.77;1.48;;;27.10;51.30;;;;;;4973914;28;20068;-64
2021/08/10 12:09:17;;;;;;;2.30;1.83;;;27.20;51.80;;;;;;4987891;28;20485;-64
2021/08/10 12:11:47;;;;;;;6.20;1.85;;;27.20;51.40;;;;;;4973635;28;20073;-65
2021/08/10 12:14:15;;;;;;;3.20;1.88;;;27.20;52.10;;;;;;4981741;28;20068;-64
2021/08/10 12:17:03;;;;;;;3.47;1.60;;;27.20;51.40;;;;;;4979051;28;20054;-64
2021/08/10 12:19:38;;;;;;;2.67;1.65;;;27.20;50.80;;;;;;4988590;28;20030;-65
2021/08/10 12:22:17;;;;;;;2.17;1.50;;;27.20;51.30;;;;;;4992592;28;20034;-65
2021/08/10 12:24:44;;;;;;;2.05;1.35;;;27.20;48.60;;;;;;4994306;28;20045;-64
2021/08/10 12:27:12;;;;;;;3.60;1.73;;;27.20;49.60;;;;;;5000062;28;20049;-65
2021/08/10 12:29:40;;;;;;;2.55;1.55;;;27.20;49.00;;;;;;4979887;28;20114;-65
2021/08/10 12:32:07;;;;;;;3.35;1.70;;;27.20;49.40;;;;;;4997810;28;20057;-65
2021/08/10 12:34:37;;;;;;;1.52;1.40;;;27.20;48.50;;;;;;4974240;28;20035;-65
2021/08/10 12:37:03;;;;;;;3.15;1.58;;;27.20;47.90;;;;;;4989225;28;20047;-65
2021/08/10 12:39:30;;;;;;;1.85;1.60;;;27.20;48.40;;;;;;4999849;28;20096;-63
2021/08/10 12:42:00;;;;;;;1.85;1.75;;;27.20;48.40;;;;;;4990027;28;20061;-65
2021/08/10 12:44:28;;;;;;;1.90;1.50;;;27.30;47.80;;;;;;4976823;28;20042;-65
2021/08/10 12:46:56;;;;;;;2.15;1.90;;;27.30;47.80;;;;;;4991557;28;20062;-64
2021/08/10 12:49:39;;;;;;;2.38;1.65;;;27.30;48.10;;;;;;4975056;28;20454;-64
2021/08/10 12:52:13;;;;;;;4.13;1.50;;;27.40;47.00;;;;;;4960383;28;20044;-65